createdAt,value
2022-10-03T00:00:59.106Z,100.00
2022-10-03T00:03:36.060Z,100.00
2022-10-03T00:06:15.432Z,100.00
2022-10-03T00:09:05.508Z,100.00
2022-10-03T00:11:43.368Z,100.00
2022-10-03T00:14:19.686Z,99.75
2022-10-03T00:16:55.078Z,100.00
2022-10-03T00:19:31.621Z,100.00
2022-10-03T00:22:12.226Z,100.00
2022-10-03T00:24:55.437Z,100.00
2022-10-03T00:27:34.498Z,100.00
2022-10-03T00:30:18.896Z,100.00
2022-10-03T00:32:58.501Z,100.00
2022-10-03T00:35:42.763Z,100.00
2022-10-03T00:38:27.576Z,100.00
2022-10-03T00:41:24.040Z,100.00
2022-10-03T00:44:34.871Z,100.00
2022-10-03T00:47:32.117Z,100.00
2022-10-03T00:50:28.018Z,100.00
2022-10-03T00:53:18.762Z,100.00
2022-10-03T00:56:02.425Z,100.00
2022-10-03T00:58:52.666Z,100.00
2022-10-03T01:01:31.509Z,99.79
2022-10-03T01:04:28.629Z,100.00
2022-10-03T01:07:06.749Z,99.47
2022-10-03T01:09:44.712Z,98.70
2022-10-03T01:12:34.826Z,99.52
2022-10-03T01:15:18.086Z,100.00
2022-10-03T01:18:01.445Z,100.00
2022-10-03T01:20:35.703Z,100.00
2022-10-03T01:23:50.845Z,99.89
2022-10-03T01:26:50.922Z,100.00
2022-10-03T01:29:45.354Z,100.00
2022-10-03T01:32:18.405Z,100.00
2022-10-03T01:34:54.158Z,100.00
2022-10-03T01:37:29.467Z,100.00
2022-10-03T01:40:06.902Z,100.00
2022-10-03T01:42:44.794Z,100.00
2022-10-03T01:45:27.404Z,100.00
2022-10-03T01:48:01.431Z,99.69
2022-10-03T01:50:36.439Z,99.83
2022-10-03T01:53:13.517Z,100.00
2022-10-03T01:55:52.369Z,100.00
2022-10-03T01:58:29.384Z,100.00
2022-10-03T02:01:07.400Z,100.00
2022-10-03T02:03:40.832Z,100.00
2022-10-03T02:06:18.582Z,100.00
2022-10-03T02:08:55.717Z,100.00
2022-10-03T02:11:31.209Z,100.00
2022-10-03T02:14:08.685Z,100.00
2022-10-03T02:16:44.780Z,99.82
2022-10-03T02:19:21.464Z,100.00
2022-10-03T02:21:51.445Z,100.00
2022-10-03T02:24:27.595Z,99.78
2022-10-03T02:27:38.441Z,99.22
2022-10-03T02:30:18.424Z,99.01
2022-10-03T02:33:23.662Z,99.41
2022-10-03T02:36:06.383Z,99.66
2022-10-03T02:38:49.744Z,100.00
2022-10-03T02:41:51.754Z,99.78
2022-10-03T02:44:46.914Z,99.06
2022-10-03T02:47:41.077Z,98.87
2022-10-03T02:50:53.609Z,99.91
2022-10-03T02:53:52.203Z,100.00
2022-10-03T02:56:52.147Z,99.97
2022-10-03T02:59:50.493Z,99.79
2022-10-03T03:02:47.263Z,100.00
2022-10-03T03:05:30.299Z,99.98
2022-10-03T03:08:37.763Z,99.88
2022-10-03T03:11:39.450Z,99.70
2022-10-03T03:14:40.381Z,99.17
2022-10-03T03:17:18.852Z,99.23
2022-10-03T03:20:21.532Z,99.05
2022-10-03T03:23:06.915Z,98.85
2022-10-03T03:25:52.486Z,98.24
2022-10-03T03:28:32.962Z,97.23
2022-10-03T03:31:15.288Z,97.54
2022-10-03T03:33:55.536Z,97.92
2022-10-03T03:36:36.205Z,97.97
2022-10-03T03:39:14.723Z,97.02
2022-10-03T03:41:56.481Z,97.73
2022-10-03T03:45:03.728Z,97.21
2022-10-03T03:47:47.598Z,96.92
2022-10-03T03:50:29.125Z,96.74
2022-10-03T03:53:26.649Z,97.53
2022-10-03T03:56:10.123Z,97.34
2022-10-03T03:58:43.581Z,97.46
2022-10-03T04:01:27.048Z,96.96
2022-10-03T04:04:09.525Z,96.45
2022-10-03T04:06:50.481Z,97.01
2022-10-03T04:09:46.566Z,97.43
2022-10-03T04:12:29.617Z,96.92
2022-10-03T04:15:26.746Z,96.66
2022-10-03T04:18:29.249Z,96.23
2022-10-03T04:21:22.338Z,95.89
2022-10-03T04:24:04.547Z,95.13
2022-10-03T04:26:46.468Z,94.81
2022-10-03T04:29:42.781Z,94.30
2022-10-03T04:32:26.585Z,94.25
2022-10-03T04:35:14.106Z,94.23
2022-10-03T04:37:47.505Z,94.24
2022-10-03T04:40:27.017Z,93.52
2022-10-03T04:43:05.826Z,93.97
2022-10-03T04:45:48.846Z,93.36
2022-10-03T04:48:29.094Z,93.34
2022-10-03T04:51:07.533Z,92.96
2022-10-03T04:53:46.092Z,92.99
2022-10-03T04:56:27.947Z,92.50
2022-10-03T04:59:04.709Z,92.56
2022-10-03T05:01:42.989Z,92.51
2022-10-03T05:04:26.920Z,92.50
2022-10-03T05:07:06.174Z,92.72
2022-10-03T05:09:40.205Z,92.17
2022-10-03T05:12:15.845Z,92.06
2022-10-03T05:15:02.518Z,92.18
2022-10-03T05:17:43.149Z,92.07
2022-10-03T05:20:25.531Z,91.92
2022-10-03T05:23:02.770Z,91.86
2022-10-03T05:25:41.613Z,91.45
2022-10-03T05:28:23.201Z,91.55
2022-10-03T05:30:58.528Z,91.43
2022-10-03T05:33:38.877Z,90.84
2022-10-03T05:36:22.117Z,91.26
2022-10-03T05:39:34.833Z,90.89
2022-10-03T05:42:36.827Z,90.33
2022-10-03T05:45:11.097Z,90.27
2022-10-03T05:47:51.593Z,90.80
2022-10-03T05:50:57.820Z,90.30
2022-10-03T05:54:04.501Z,90.77
2022-10-03T05:56:56.501Z,90.56
2022-10-03T05:59:38.454Z,91.18
2022-10-03T06:02:35.884Z,91.63
2022-10-03T06:05:23.609Z,92.23
2022-10-03T06:08:19.836Z,92.61
2022-10-03T06:10:52.996Z,92.78
2022-10-03T06:13:38.457Z,94.37
2022-10-03T06:16:23.189Z,93.70
2022-10-03T06:19:07.172Z,94.71
2022-10-03T06:22:08.138Z,96.31
2022-10-03T06:24:58.281Z,95.20
2022-10-03T06:28:05.980Z,96.51
2022-10-03T06:31:00.337Z,97.54
2022-10-03T06:34:01.352Z,98.57
2022-10-03T06:36:49.120Z,96.62
2022-10-03T06:39:52.548Z,96.19
2022-10-03T06:42:47.590Z,96.36
2022-10-03T06:46:05.319Z,98.44
2022-10-03T06:49:06.287Z,97.35
2022-10-03T06:51:56.827Z,96.70
2022-10-03T06:55:04.380Z,97.52
2022-10-03T06:57:56.986Z,98.82
2022-10-03T07:00:33.864Z,97.37
2022-10-03T07:03:31.354Z,98.57
2022-10-03T07:06:31.915Z,100.00
2022-10-03T07:09:29.959Z,100.00
2022-10-03T07:12:36.136Z,100.00
2022-10-03T07:15:57.826Z,99.41
2022-10-03T07:19:02.688Z,97.96
2022-10-03T07:22:18.624Z,100.00
2022-10-03T07:25:30.123Z,100.00
2022-10-03T07:28:20.992Z,100.00
2022-10-03T07:31:02.138Z,100.00
2022-10-03T07:33:58.615Z,100.00
2022-10-03T07:37:13.170Z,100.00
2022-10-03T07:40:13.718Z,100.00
2022-10-03T07:43:01.743Z,100.00
2022-10-03T07:45:39.518Z,100.00
2022-10-03T07:48:39.764Z,100.00
2022-10-03T07:51:14.953Z,100.00
2022-10-03T07:54:18.488Z,100.00
2022-10-03T07:57:01.533Z,100.00
2022-10-03T08:02:44.457Z,100.00
2022-10-03T08:05:32.285Z,100.00
2022-10-03T08:08:21.986Z,100.00
2022-10-03T08:11:15.803Z,99.99
2022-10-03T08:14:01.522Z,99.88
2022-10-03T08:16:52.853Z,99.21
2022-10-03T08:19:41.132Z,100.00
2022-10-03T08:22:16.567Z,100.00
2022-10-03T08:25:07.350Z,100.00
2022-10-03T08:27:57.333Z,99.48
2022-10-03T08:30:29.354Z,99.38
2022-10-03T08:33:05.728Z,98.40
2022-10-03T08:36:14.106Z,99.27
2022-10-03T08:38:54.046Z,98.97
2022-10-03T08:42:06.201Z,97.67
2022-10-03T08:45:03.018Z,98.02
2022-10-03T08:48:18.836Z,97.28
2022-10-03T08:51:12.653Z,98.62
2022-10-03T08:54:14.552Z,97.74
2022-10-03T08:57:06.194Z,96.85
2022-10-03T09:00:05.342Z,96.81
2022-10-03T09:06:24.643Z,96.47
2022-10-03T09:09:16.750Z,96.71
2022-10-03T09:12:16.358Z,95.90
2022-10-03T09:15:22.776Z,95.22
2022-10-03T09:18:23.850Z,94.83
2022-10-03T09:21:39.085Z,94.54
2022-10-03T09:24:38.526Z,94.40
2022-10-03T09:27:31.566Z,94.30
2022-10-03T09:30:17.978Z,94.17
2022-10-03T09:33:14.646Z,92.89
2022-10-03T09:35:59.802Z,92.86
2022-10-03T09:38:55.249Z,91.58
2022-10-03T09:41:56.080Z,91.00
2022-10-03T09:44:45.590Z,90.29
2022-10-03T09:47:38.733Z,90.12
2022-10-03T09:51:03.226Z,89.15
2022-10-03T09:53:58.713Z,89.27
2022-10-03T09:57:05.404Z,89.74
2022-10-03T09:59:52.298Z,90.36
2022-10-03T10:02:53.466Z,89.28
2022-10-03T10:05:47.781Z,89.29
2022-10-03T10:08:42.766Z,89.02
2022-10-03T10:11:30.601Z,88.78
2022-10-03T10:14:38.504Z,88.76
2022-10-03T10:17:45.908Z,87.10
2022-10-03T10:20:46.879Z,88.13
2022-10-03T10:23:28.659Z,87.34
2022-10-03T10:26:38.882Z,87.52
2022-10-03T10:29:29.833Z,85.81
2022-10-03T10:32:40.838Z,84.63
2022-10-03T10:35:52.800Z,84.66
2022-10-03T10:39:00.476Z,86.15
2022-10-03T10:42:12.418Z,85.95
2022-10-03T10:45:13.243Z,86.10
2022-10-03T10:48:29.001Z,87.50
2022-10-03T10:51:30.985Z,86.77
2022-10-03T10:54:53.296Z,85.61
2022-10-03T10:57:45.974Z,85.86
2022-10-03T11:00:22.433Z,85.49
2022-10-03T11:03:43.934Z,85.06
2022-10-03T11:06:53.443Z,85.57
2022-10-03T11:09:52.055Z,85.06
2022-10-03T11:12:58.700Z,84.80
2022-10-03T11:15:56.250Z,85.23
2022-10-03T11:19:01.078Z,84.12
2022-10-03T11:22:05.687Z,83.70
2022-10-03T11:25:29.046Z,81.82
2022-10-03T11:28:27.708Z,81.64
2022-10-03T11:31:28.868Z,81.67
2022-10-03T11:34:38.235Z,81.73
2022-10-03T11:37:19.319Z,81.70
2022-10-03T11:39:54.794Z,79.46
2022-10-03T11:42:37.478Z,79.13
2022-10-03T11:45:08.003Z,78.99
2022-10-03T11:47:55.083Z,79.37
2022-10-03T11:50:38.535Z,79.62
2022-10-03T11:53:17.698Z,79.93
2022-10-03T11:55:52.411Z,76.79
2022-10-03T11:58:34.826Z,78.00
2022-10-03T12:01:22.790Z,78.45
2022-10-03T12:03:57.446Z,79.42
2022-10-03T12:07:02.354Z,79.09
2022-10-03T12:09:42.617Z,78.86
2022-10-03T12:12:17.208Z,78.72
2022-10-03T12:14:47.869Z,78.90
2022-10-03T12:17:18.486Z,78.37
2022-10-03T12:19:57.432Z,78.77
2022-10-03T12:22:41.911Z,76.51
2022-10-03T12:25:21.525Z,76.61
2022-10-03T12:27:57.380Z,76.89
2022-10-03T12:30:26.664Z,77.32
2022-10-03T12:33:12.765Z,77.67
2022-10-03T12:35:46.086Z,74.71
2022-10-03T12:38:33.716Z,75.56
2022-10-03T12:41:20.949Z,74.81
2022-10-03T12:44:05.065Z,74.78
2022-10-03T12:46:45.412Z,75.20
2022-10-03T12:49:20.050Z,76.29
2022-10-03T12:51:59.602Z,75.49
2022-10-03T12:54:46.434Z,76.48
2022-10-03T12:57:45.742Z,73.94
2022-10-03T13:00:21.549Z,73.01
2022-10-03T13:03:19.073Z,74.73
2022-10-03T13:06:17.680Z,75.61
2022-10-03T13:09:01.270Z,75.71
2022-10-03T13:11:38.962Z,76.54
2022-10-03T13:14:26.874Z,76.95
2022-10-03T13:17:05.308Z,77.93
2022-10-03T13:19:44.923Z,76.50
2022-10-03T13:22:28.104Z,75.41
2022-10-03T13:25:03.645Z,75.29
2022-10-03T13:27:39.381Z,75.87
2022-10-03T13:30:18.649Z,75.82
2022-10-03T13:32:51.078Z,76.66
2022-10-03T13:35:48.759Z,75.77
2022-10-03T13:38:46.142Z,73.32
2022-10-03T13:41:25.293Z,75.33
2022-10-03T13:43:59.549Z,75.85
2022-10-03T13:46:37.317Z,75.06
2022-10-03T13:49:15.739Z,75.45
2022-10-03T13:51:52.918Z,75.30
2022-10-03T13:54:35.295Z,75.63
2022-10-03T13:57:15.121Z,75.12
2022-10-03T14:00:00.266Z,76.08
2022-10-03T14:02:48.055Z,75.28
2022-10-03T14:05:43.190Z,74.13
2022-10-03T14:08:21.989Z,74.91
2022-10-03T14:11:06.265Z,73.02
2022-10-03T14:13:44.549Z,74.82
2022-10-03T14:16:21.777Z,72.75
2022-10-03T14:18:58.504Z,73.25
2022-10-03T14:21:50.188Z,73.07
2022-10-03T14:24:47.329Z,74.03
2022-10-03T14:27:33.492Z,73.73
2022-10-03T14:30:06.872Z,73.26
2022-10-03T14:32:48.081Z,73.92
2022-10-03T14:35:28.063Z,75.08
2022-10-03T14:38:04.511Z,75.23
2022-10-03T14:40:42.807Z,74.88
2022-10-03T14:43:35.697Z,74.71
2022-10-03T14:46:05.839Z,75.37
2022-10-03T14:48:38.859Z,74.77
2022-10-03T14:51:16.249Z,73.63
2022-10-03T14:53:52.332Z,74.59
2022-10-03T14:56:22.380Z,74.34
2022-10-03T14:58:52.491Z,75.74
2022-10-03T15:01:22.399Z,74.18
2022-10-03T15:04:02.647Z,73.89
2022-10-03T15:06:38.690Z,74.72
2022-10-03T15:09:12.578Z,75.91
2022-10-03T15:11:48.790Z,75.36
2022-10-03T15:14:16.976Z,76.21
2022-10-03T15:16:48.841Z,76.49
2022-10-03T15:19:19.819Z,75.09
2022-10-03T15:21:52.759Z,75.76
2022-10-03T15:24:25.524Z,75.38
2022-10-03T15:27:02.709Z,75.33
2022-10-03T15:29:32.207Z,75.83
2022-10-03T15:32:01.039Z,76.87
2022-10-03T15:34:34.027Z,76.66
2022-10-03T15:37:11.100Z,77.09
2022-10-03T15:39:42.984Z,77.67
2022-10-03T15:42:23.960Z,78.85
2022-10-03T15:44:56.575Z,78.40
2022-10-03T15:47:26.686Z,78.62
2022-10-03T15:49:59.480Z,79.34
2022-10-03T15:52:37.512Z,79.15
2022-10-03T15:55:12.388Z,79.30
2022-10-03T15:57:45.610Z,80.07
2022-10-03T16:00:22.436Z,80.58
2022-10-03T16:02:57.072Z,80.97
2022-10-03T16:05:25.775Z,81.32
2022-10-03T16:08:01.479Z,81.49
2022-10-03T16:10:32.543Z,81.31
2022-10-03T16:13:07.797Z,82.15
2022-10-03T16:15:55.020Z,81.64
2022-10-03T16:18:45.466Z,81.89
2022-10-03T16:21:16.832Z,82.47
2022-10-03T16:23:47.183Z,82.22
2022-10-03T16:26:23.516Z,81.87
2022-10-03T16:28:57.276Z,82.10
2022-10-03T16:31:28.659Z,82.93
2022-10-03T16:34:01.713Z,83.14
2022-10-03T16:36:31.726Z,82.65
2022-10-03T16:39:02.431Z,82.92
2022-10-03T16:41:32.770Z,82.92
2022-10-03T16:44:02.833Z,83.36
2022-10-03T16:46:35.082Z,83.08
2022-10-03T16:49:27.836Z,84.16
2022-10-03T16:52:00.533Z,84.61
2022-10-03T16:54:33.382Z,84.75
2022-10-03T16:57:04.344Z,84.47
2022-10-03T16:59:33.513Z,84.38
2022-10-03T17:02:05.989Z,84.10
2022-10-03T17:04:37.749Z,84.17
2022-10-03T17:07:08.599Z,84.75
2022-10-03T17:09:42.416Z,85.08
2022-10-03T17:12:17.963Z,85.07
2022-10-03T17:14:46.153Z,85.58
2022-10-03T17:17:27.459Z,85.46
2022-10-03T17:20:00.754Z,85.65
2022-10-03T17:22:35.722Z,85.26
2022-10-03T17:25:09.026Z,85.59
2022-10-03T17:27:40.274Z,85.79
2022-10-03T17:30:19.869Z,85.69
2022-10-03T17:32:57.553Z,85.94
2022-10-03T17:35:32.483Z,85.97
2022-10-03T17:38:48.474Z,86.61
2022-10-03T17:41:20.393Z,86.53
2022-10-03T17:43:59.487Z,86.35
2022-10-03T17:46:36.431Z,85.85
2022-10-03T17:49:18.053Z,85.11
2022-10-03T17:51:48.210Z,85.25
2022-10-03T17:54:20.113Z,85.50
2022-10-03T17:56:56.758Z,85.53
2022-10-03T17:59:29.168Z,84.97
2022-10-03T18:02:01.614Z,85.04
2022-10-03T18:04:34.804Z,83.88
2022-10-03T18:07:07.553Z,84.11
2022-10-03T18:09:40.821Z,83.33
2022-10-03T18:12:22.218Z,83.77
2022-10-03T18:15:19.550Z,84.07
2022-10-03T18:18:16.262Z,84.45
2022-10-03T18:20:49.470Z,84.90
2022-10-03T18:23:50.026Z,84.72
2022-10-03T18:26:21.678Z,84.54
2022-10-03T18:28:59.628Z,84.65
2022-10-03T18:31:30.962Z,84.78
2022-10-03T18:34:02.704Z,85.27
2022-10-03T18:36:32.732Z,84.48
2022-10-03T18:39:06.906Z,84.51
2022-10-03T18:41:34.938Z,85.08
2022-10-03T18:44:04.450Z,85.18
2022-10-03T18:46:40.804Z,85.70
2022-10-03T18:49:34.382Z,85.42
2022-10-03T18:52:10.591Z,85.84
2022-10-03T18:54:53.083Z,85.87
2022-10-03T18:57:26.551Z,86.23
2022-10-03T19:00:01.748Z,86.18
2022-10-03T19:02:36.327Z,86.39
2022-10-03T19:05:11.970Z,86.37
2022-10-03T19:07:48.830Z,86.47
2022-10-03T19:10:38.355Z,86.24
2022-10-03T19:13:27.644Z,86.45
2022-10-03T19:16:15.031Z,86.50
2022-10-03T19:18:45.380Z,86.07
2022-10-03T19:21:20.008Z,86.28
2022-10-03T19:23:52.334Z,86.19
2022-10-03T19:26:24.470Z,86.03
2022-10-03T19:28:57.602Z,85.53
2022-10-03T19:31:32.833Z,86.02
2022-10-03T19:34:04.566Z,85.55
2022-10-03T19:36:36.102Z,85.55
2022-10-03T19:39:05.877Z,85.05
2022-10-03T19:41:38.660Z,85.29
2022-10-03T19:44:09.102Z,85.08
2022-10-03T19:47:06.437Z,84.87
2022-10-03T19:49:44.881Z,84.35
2022-10-03T19:52:18.477Z,84.12
2022-10-03T19:54:51.615Z,84.51
2022-10-03T19:57:21.964Z,84.54
2022-10-03T19:59:53.162Z,84.38
2022-10-03T20:02:27.766Z,83.91
2022-10-03T20:04:57.924Z,84.25
2022-10-03T20:07:44.179Z,84.29
2022-10-03T20:10:26.153Z,83.77
2022-10-03T20:12:54.452Z,83.64
2022-10-03T20:15:25.116Z,83.90
2022-10-03T20:18:01.655Z,83.68
2022-10-03T20:20:31.954Z,83.93
2022-10-03T20:23:05.407Z,83.93
2022-10-03T20:25:38.559Z,83.29
2022-10-03T20:28:09.395Z,83.29
2022-10-03T20:30:44.407Z,83.10
2022-10-03T20:33:19.418Z,83.36
2022-10-03T20:35:54.699Z,83.20
2022-10-03T20:38:31.819Z,83.43
2022-10-03T20:41:05.612Z,83.01
2022-10-03T20:43:41.607Z,83.08
2022-10-03T20:46:16.686Z,83.01
2022-10-03T20:49:07.981Z,82.74
2022-10-03T20:51:42.577Z,82.45
2022-10-03T20:54:20.071Z,82.65
2022-10-03T20:56:55.551Z,82.89
2022-10-03T20:59:33.781Z,82.70
2022-10-03T21:02:06.611Z,82.41
2022-10-03T21:04:42.563Z,82.77
2022-10-03T21:07:24.722Z,82.67
2022-10-03T21:10:00.237Z,82.64
2022-10-03T21:12:32.129Z,82.69
2022-10-03T21:15:07.510Z,82.33
2022-10-03T21:17:37.330Z,82.61
2022-10-03T21:20:14.502Z,82.68
2022-10-03T21:22:43.582Z,82.81
2022-10-03T21:25:21.585Z,82.26
2022-10-03T21:27:52.783Z,82.67
2022-10-03T21:30:23.111Z,82.59
2022-10-03T21:32:59.778Z,81.89
2022-10-03T21:35:31.897Z,82.14
2022-10-03T21:38:10.787Z,82.55
2022-10-03T21:40:53.195Z,82.45
2022-10-03T21:43:37.982Z,81.69
2022-10-03T21:46:14.977Z,81.63
2022-10-03T21:48:59.477Z,82.03
2022-10-03T21:51:33.575Z,81.76
2022-10-03T21:54:19.808Z,81.95
2022-10-03T21:56:58.254Z,81.66
2022-10-03T21:59:46.456Z,81.47
2022-10-03T22:02:21.883Z,81.32
2022-10-03T22:04:55.565Z,81.54
2022-10-03T22:07:36.109Z,81.36
2022-10-03T22:10:05.655Z,81.51
2022-10-03T22:12:43.713Z,81.39
2022-10-03T22:15:18.092Z,81.18
2022-10-03T22:17:54.986Z,81.20
2022-10-03T22:20:24.500Z,81.38
2022-10-03T22:23:01.337Z,81.47
2022-10-03T22:25:45.050Z,80.95
2022-10-03T22:28:21.991Z,81.12
2022-10-03T22:31:01.772Z,81.29
2022-10-03T22:33:45.047Z,80.97
2022-10-03T22:36:13.591Z,81.50
2022-10-03T22:38:42.600Z,81.09
2022-10-03T22:41:13.704Z,81.38
2022-10-03T22:43:43.368Z,81.38
2022-10-03T22:46:14.516Z,81.38
2022-10-03T22:48:47.163Z,81.30
2022-10-03T22:51:19.618Z,80.75
2022-10-03T22:53:54.250Z,80.84
2022-10-03T22:56:36.432Z,80.68
2022-10-03T22:59:07.331Z,80.81
2022-10-03T23:01:36.898Z,80.78
2022-10-03T23:04:09.443Z,81.03
2022-10-03T23:06:55.696Z,80.68
2022-10-03T23:09:31.697Z,81.00
2022-10-03T23:11:59.747Z,80.70
2022-10-03T23:14:31.713Z,80.35
2022-10-03T23:17:11.736Z,80.83
2022-10-03T23:19:53.561Z,80.84
2022-10-03T23:22:25.208Z,80.55
2022-10-03T23:24:59.628Z,80.36
2022-10-03T23:27:51.600Z,80.50
2022-10-03T23:30:46.667Z,80.12
2022-10-03T23:33:17.651Z,80.63
2022-10-03T23:35:47.657Z,80.11
2022-10-03T23:38:54.244Z,80.17
2022-10-03T23:41:32.655Z,80.64
2022-10-03T23:44:00.465Z,80.58
2022-10-03T23:46:31.083Z,80.31
2022-10-03T23:49:02.030Z,80.25
2022-10-03T23:51:34.558Z,79.96
2022-10-03T23:54:05.263Z,80.24
2022-10-03T23:56:37.949Z,80.09
2022-10-03T23:59:20.620Z,80.05
